createdAt,value
2019-05-02T00:02:18.909Z,20.47
2019-05-02T00:04:44.960Z,21.87
2019-05-02T00:07:14.389Z,20.83
2019-05-02T00:09:47.345Z,21.40
2019-05-02T00:12:12.368Z,20.67
2019-05-02T00:14:39.264Z,20.70
2019-05-02T00:17:05.430Z,21.07
2019-05-02T00:19:31.282Z,19.80
2019-05-02T00:21:57.150Z,19.10
2019-05-02T00:24:22.997Z,20.20
2019-05-02T00:26:49.075Z,19.17
2019-05-02T00:29:19.016Z,19.80
2019-05-02T00:31:46.825Z,20.00
2019-05-02T00:34:10.459Z,21.73
2019-05-02T00:36:36.301Z,18.17
2019-05-02T00:39:09.481Z,20.43
2019-05-02T00:41:38.276Z,19.43
2019-05-02T00:44:00.993Z,19.27
2019-05-02T00:46:30.260Z,20.93
2019-05-02T00:48:59.648Z,21.27
2019-05-02T00:51:26.778Z,21.17
2019-05-02T00:53:52.187Z,20.93
2019-05-02T00:56:19.109Z,20.93
2019-05-02T00:58:44.971Z,21.97
2019-05-02T01:01:15.512Z,21.77
2019-05-02T01:03:47.243Z,20.73
2019-05-02T01:06:14.541Z,20.77
2019-05-02T01:08:38.808Z,20.37
2019-05-02T01:11:04.674Z,21.87
2019-05-02T01:13:30.526Z,20.97
2019-05-02T01:15:56.399Z,21.37
2019-05-02T01:18:23.856Z,21.63
2019-05-02T01:20:49.833Z,20.40
2019-05-02T01:23:15.695Z,19.67
2019-05-02T01:25:41.555Z,20.43
2019-05-02T01:28:17.275Z,21.40
2019-05-02T01:30:58.217Z,21.30
2019-05-02T01:33:25.974Z,20.87
2019-05-02T01:35:53.752Z,20.80
2019-05-02T01:38:26.365Z,23.57
2019-05-02T01:40:54.679Z,21.10
2019-05-02T01:43:24.389Z,20.70
2019-05-02T01:45:51.367Z,21.93
2019-05-02T01:48:17.424Z,22.27
2019-05-02T01:50:43.293Z,21.83
2019-05-02T01:53:09.148Z,19.60
2019-05-02T01:55:35.004Z,21.00
2019-05-02T01:58:00.893Z,21.43
2019-05-02T02:00:26.769Z,21.60
2019-05-02T02:02:52.639Z,21.93
2019-05-02T02:05:18.512Z,21.83
2019-05-02T02:07:44.378Z,20.93
2019-05-02T02:10:10.342Z,21.07
2019-05-02T02:12:36.222Z,20.50
2019-05-02T02:15:03.984Z,22.67
2019-05-02T02:17:29.832Z,22.77
2019-05-02T02:19:57.600Z,21.77
2019-05-02T02:22:41.097Z,21.57
2019-05-02T02:25:24.632Z,21.50
2019-05-02T02:27:50.485Z,20.73
2019-05-02T02:30:17.699Z,19.17
2019-05-02T02:32:44.522Z,21.40
2019-05-02T02:35:12.696Z,21.17
2019-05-02T02:37:38.465Z,20.73
2019-05-02T02:40:04.630Z,21.73
2019-05-02T02:42:31.632Z,21.57
2019-05-02T02:45:05.957Z,21.37
2019-05-02T02:47:31.818Z,22.57
2019-05-02T02:50:02.745Z,22.83
2019-05-02T02:52:25.436Z,21.67
2019-05-02T02:54:51.301Z,21.53
2019-05-02T02:57:25.812Z,22.17
2019-05-02T02:59:44.918Z,21.67
2019-05-02T03:02:12.174Z,21.03
2019-05-02T03:04:44.086Z,22.33
2019-05-02T03:07:05.918Z,21.97
2019-05-02T03:09:31.980Z,22.00
2019-05-02T03:12:16.346Z,19.60
2019-05-02T03:14:47.321Z,21.07
2019-05-02T03:17:12.029Z,19.33
2019-05-02T03:19:37.884Z,19.33
2019-05-02T03:22:04.291Z,19.97
2019-05-02T03:24:30.209Z,18.67
2019-05-02T03:26:58.412Z,20.47
2019-05-02T03:29:23.928Z,20.90
2019-05-02T03:31:50.396Z,20.70
2019-05-02T03:34:16.231Z,19.17
2019-05-02T03:36:42.188Z,21.67
2019-05-02T03:39:14.743Z,21.20
2019-05-02T03:41:36.009Z,20.33
2019-05-02T03:44:11.297Z,20.53
2019-05-02T03:46:29.747Z,21.80
2019-05-02T03:49:05.487Z,21.57
2019-05-02T03:51:25.168Z,19.40
2019-05-02T03:53:51.087Z,20.53
2019-05-02T03:56:17.044Z,20.70
2019-05-02T03:58:48.409Z,20.10
2019-05-02T04:01:10.980Z,20.13
2019-05-02T04:03:41.041Z,19.37
2019-05-02T04:06:04.814Z,19.17
2019-05-02T04:08:31.561Z,20.30
2019-05-02T04:11:16.325Z,19.80
2019-05-02T04:13:42.179Z,18.80
2019-05-02T04:16:14.663Z,19.47
2019-05-02T04:18:37.001Z,18.37
2019-05-02T04:21:02.851Z,18.47
2019-05-02T04:23:29.902Z,20.20
2019-05-02T04:25:56.799Z,17.83
2019-05-02T04:28:22.925Z,20.73
2019-05-02T04:30:51.177Z,18.93
2019-05-02T04:33:16.552Z,18.87
2019-05-02T04:35:42.432Z,19.27
2019-05-02T04:38:19.088Z,17.90
2019-05-02T04:40:41.728Z,17.57
2019-05-02T04:43:08.168Z,19.60
2019-05-02T04:45:50.926Z,20.13
2019-05-02T04:48:03.832Z,19.70
2019-05-02T04:50:29.494Z,18.90
2019-05-02T04:52:55.000Z,20.10
2019-05-02T04:55:28.261Z,18.90
2019-05-02T04:57:51.024Z,21.63
2019-05-02T05:00:20.218Z,20.47
2019-05-02T05:02:48.399Z,21.90
2019-05-02T05:05:17.206Z,20.87
2019-05-02T05:07:46.287Z,19.93
2019-05-02T05:10:09.391Z,21.53
2019-05-02T05:12:40.075Z,22.00
2019-05-02T05:15:04.508Z,20.53
2019-05-02T05:17:32.970Z,23.70
2019-05-02T05:20:00.131Z,24.80
2019-05-02T05:22:25.871Z,24.17
2019-05-02T05:24:53.644Z,23.90
2019-05-02T05:27:22.790Z,25.20
2019-05-02T05:29:48.573Z,23.80
2019-05-02T05:32:14.641Z,24.77
2019-05-02T05:34:40.494Z,25.57
2019-05-02T05:37:09.351Z,24.87
2019-05-02T05:39:34.125Z,25.30
2019-05-02T05:42:00.006Z,26.40
2019-05-02T05:44:28.627Z,25.23
2019-05-02T05:46:53.625Z,26.87
2019-05-02T05:49:21.808Z,27.10
2019-05-02T05:51:47.478Z,26.10
2019-05-02T05:54:15.051Z,28.43
2019-05-02T05:56:43.150Z,28.67
2019-05-02T05:59:08.687Z,27.03
2019-05-02T06:01:36.407Z,27.97
2019-05-02T06:04:02.927Z,30.13
2019-05-02T06:06:28.790Z,30.37
2019-05-02T06:08:55.404Z,29.47
2019-05-02T06:11:21.819Z,31.10
2019-05-02T06:13:48.785Z,33.70
2019-05-02T06:16:16.652Z,33.40
2019-05-02T06:18:43.702Z,36.13
2019-05-02T06:21:10.801Z,36.47
2019-05-02T06:23:41.068Z,36.27
2019-05-02T06:26:08.081Z,36.03
2019-05-02T06:28:36.311Z,37.10
2019-05-02T06:31:02.241Z,38.63
2019-05-02T06:33:30.474Z,38.13
2019-05-02T06:36:00.927Z,37.53
2019-05-02T06:38:23.324Z,39.47
2019-05-02T06:40:49.186Z,37.73
2019-05-02T06:43:15.050Z,38.57
2019-05-02T06:45:40.900Z,41.00
2019-05-02T06:48:06.755Z,44.53
2019-05-02T06:50:33.272Z,44.03
2019-05-02T06:53:04.336Z,44.10
2019-05-02T06:55:36.002Z,42.60
2019-05-02T06:57:57.146Z,44.73
2019-05-02T07:00:35.400Z,43.70
2019-05-02T07:02:51.650Z,42.40
2019-05-02T07:05:17.494Z,43.87
2019-05-02T07:07:43.431Z,45.33
2019-05-02T07:10:09.842Z,48.20
2019-05-02T07:12:35.705Z,45.03
2019-05-02T07:15:08.374Z,47.47
2019-05-02T07:17:38.403Z,47.33
2019-05-02T07:20:05.947Z,49.30
2019-05-02T07:22:33.178Z,47.60
2019-05-02T07:25:01.913Z,49.17
2019-05-02T07:27:28.287Z,49.07
2019-05-02T07:29:57.818Z,48.87
2019-05-02T07:32:24.957Z,46.30
2019-05-02T07:34:50.664Z,47.40
2019-05-02T07:37:16.505Z,43.87
2019-05-02T07:39:42.509Z,46.03
2019-05-02T07:42:08.534Z,44.40
2019-05-02T07:44:34.587Z,42.40
2019-05-02T07:47:02.731Z,42.73
2019-05-02T07:49:32.332Z,43.57
2019-05-02T07:51:57.732Z,40.57
2019-05-02T07:54:24.834Z,42.23
2019-05-02T07:56:53.466Z,39.73
2019-05-02T07:59:23.265Z,40.60
2019-05-02T08:01:49.661Z,39.17
2019-05-02T08:04:14.870Z,36.27
2019-05-02T08:06:44.560Z,38.73
2019-05-02T08:09:09.189Z,39.67
2019-05-02T08:11:37.158Z,36.40
2019-05-02T08:14:03.697Z,40.00
2019-05-02T08:16:29.560Z,37.17
2019-05-02T08:18:55.429Z,36.47
2019-05-02T08:21:21.298Z,36.80
2019-05-02T08:23:47.165Z,38.37
2019-05-02T08:26:16.312Z,37.07
2019-05-02T08:28:47.058Z,40.37
2019-05-02T08:31:13.658Z,38.90
2019-05-02T08:33:40.766Z,41.40
2019-05-02T08:36:06.632Z,40.23
2019-05-02T08:38:32.477Z,41.30
2019-05-02T08:40:58.361Z,41.50
2019-05-02T08:43:24.217Z,40.17
2019-05-02T08:45:50.071Z,38.87
2019-05-02T08:48:15.939Z,41.27
2019-05-02T08:50:41.787Z,40.33
2019-05-02T08:53:07.648Z,39.03
2019-05-02T08:55:33.500Z,38.60
2019-05-02T08:57:59.378Z,37.50
2019-05-02T09:00:25.236Z,36.67
2019-05-02T09:02:51.085Z,35.00
2019-05-02T09:05:17.115Z,37.37
2019-05-02T09:07:43.374Z,37.90
2019-05-02T09:10:09.924Z,38.60
2019-05-02T09:12:36.853Z,37.30
2019-05-02T09:15:05.265Z,39.57
2019-05-02T09:17:36.110Z,37.33
2019-05-02T09:20:02.918Z,34.53
2019-05-02T09:22:26.653Z,32.80
2019-05-02T09:24:52.523Z,33.60
2019-05-02T09:27:18.405Z,35.67
2019-05-02T09:29:45.899Z,33.43
2019-05-02T09:32:12.529Z,32.50
2019-05-02T09:34:38.581Z,31.93
2019-05-02T09:37:04.418Z,34.27
2019-05-02T09:39:34.682Z,33.30
2019-05-02T09:41:58.025Z,33.53
2019-05-02T09:44:23.895Z,33.83
2019-05-02T09:46:55.297Z,32.63
2019-05-02T09:49:18.012Z,32.97
2019-05-02T09:51:45.603Z,31.80
2019-05-02T09:54:11.987Z,34.10
2019-05-02T09:56:39.028Z,34.10
2019-05-02T09:59:23.298Z,31.03
2019-05-02T10:01:34.570Z,34.93
2019-05-02T10:04:02.377Z,36.23
2019-05-02T10:06:31.152Z,33.13
2019-05-02T10:08:56.143Z,35.00
2019-05-02T10:11:26.114Z,35.27
2019-05-02T10:13:51.739Z,34.53
2019-05-02T10:16:17.967Z,35.33
2019-05-02T10:18:45.324Z,34.90
2019-05-02T10:21:13.571Z,35.50
2019-05-02T10:23:38.957Z,36.23
2019-05-02T10:26:05.016Z,33.93
2019-05-02T10:28:31.710Z,35.63
2019-05-02T10:30:57.840Z,36.60
2019-05-02T10:33:28.013Z,36.20
2019-05-02T10:35:53.511Z,38.33
2019-05-02T10:38:19.673Z,36.77
2019-05-02T10:40:48.311Z,34.93
2019-05-02T10:43:13.504Z,39.50
2019-05-02T10:45:42.502Z,37.17
2019-05-02T10:48:21.825Z,41.10
2019-05-02T10:50:38.156Z,39.43
2019-05-02T10:53:11.096Z,42.23
2019-05-02T10:55:33.192Z,43.97
2019-05-02T10:57:59.241Z,48.77
2019-05-02T11:00:27.415Z,48.97
2019-05-02T11:03:03.918Z,47.43
2019-05-02T11:05:31.587Z,43.40
2019-05-02T11:08:04.768Z,47.73
2019-05-02T11:10:25.303Z,47.70
2019-05-02T11:13:05.105Z,48.77
2019-05-02T11:15:38.695Z,48.87
2019-05-02T11:18:04.810Z,48.83
2019-05-02T11:20:31.877Z,51.73
2019-05-02T11:22:57.857Z,50.97
2019-05-02T11:25:23.708Z,49.40
2019-05-02T11:27:49.571Z,46.30
2019-05-02T11:30:16.725Z,45.07
2019-05-02T11:32:43.397Z,44.47
2019-05-02T11:35:09.748Z,44.37
2019-05-02T11:37:35.611Z,44.13
2019-05-02T11:40:05.268Z,46.80
2019-05-02T11:42:29.239Z,46.10
2019-05-02T11:44:55.089Z,42.43
2019-05-02T11:47:22.724Z,45.27
2019-05-02T11:49:52.090Z,44.20
2019-05-02T11:52:16.481Z,41.30
2019-05-02T11:54:44.698Z,41.80
2019-05-02T11:57:11.659Z,40.63
2019-05-02T11:59:37.604Z,41.33
2019-05-02T12:02:17.439Z,39.13
2019-05-02T12:04:38.923Z,39.50
2019-05-02T12:07:05.079Z,39.83
2019-05-02T12:09:31.938Z,38.87
2019-05-02T12:11:57.996Z,38.87
2019-05-02T12:14:27.412Z,40.33
2019-05-02T12:16:52.780Z,38.30
2019-05-02T12:19:18.706Z,37.17
2019-05-02T12:21:54.909Z,37.60
2019-05-02T12:24:22.151Z,39.43
2019-05-02T12:26:48.049Z,41.80
2019-05-02T12:29:13.913Z,39.60
2019-05-02T12:31:39.776Z,39.67
2019-05-02T12:34:06.629Z,37.93
2019-05-02T12:36:33.337Z,39.37
2019-05-02T12:38:59.470Z,38.70
2019-05-02T12:41:25.462Z,41.10
2019-05-02T12:43:52.449Z,40.57
2019-05-02T12:46:18.467Z,46.97
2019-05-02T12:48:44.368Z,46.50
2019-05-02T12:51:10.227Z,44.13
2019-05-02T12:53:36.081Z,42.13
2019-05-02T12:56:02.290Z,40.33
2019-05-02T12:58:28.193Z,38.77
2019-05-02T13:00:54.042Z,36.03
2019-05-02T13:03:36.744Z,35.50
2019-05-02T13:06:03.414Z,37.90
2019-05-02T13:08:29.274Z,36.80
2019-05-02T13:11:06.733Z,36.70
2019-05-02T13:13:32.633Z,35.83
2019-05-02T13:16:00.721Z,24.43
2019-05-02T13:18:29.247Z,30.67
2019-05-02T13:20:54.942Z,27.37
2019-05-02T13:23:27.412Z,29.67
2019-05-02T13:25:51.781Z,30.27
2019-05-02T13:28:22.342Z,27.37
2019-05-02T13:30:51.668Z,28.13
2019-05-02T13:33:27.314Z,27.07
2019-05-02T13:38:22.377Z,24.60
2019-05-02T13:40:48.771Z,23.67
2019-05-02T13:43:15.930Z,19.20
2019-05-02T13:45:43.797Z,15.60
2019-05-02T13:48:09.655Z,14.60
2019-05-02T13:50:35.501Z,12.53
2019-05-02T13:53:02.645Z,11.67
2019-05-02T13:55:31.766Z,12.23
2019-05-02T13:57:57.844Z,10.90
2019-05-02T14:00:25.714Z,7.20
2019-05-02T14:02:52.046Z,8.80
2019-05-02T14:05:18.461Z,8.77
2019-05-02T14:07:48.280Z,13.57
2019-05-02T14:10:22.978Z,10.27
2019-05-02T14:12:59.600Z,8.20
2019-05-02T14:15:27.361Z,9.67
2019-05-02T14:17:53.319Z,9.20
2019-05-02T14:20:22.408Z,11.23
2019-05-02T14:22:48.253Z,11.07
2019-05-02T14:25:14.202Z,12.30
2019-05-02T14:27:42.037Z,11.70
2019-05-02T14:30:08.739Z,11.83
2019-05-02T14:32:34.590Z,10.27
2019-05-02T14:35:02.682Z,11.47
2019-05-02T14:37:28.658Z,11.83
2019-05-02T14:39:56.441Z,11.30
2019-05-02T14:42:26.074Z,10.83
2019-05-02T14:45:07.141Z,11.83
2019-05-02T14:47:19.698Z,12.57
2019-05-02T14:49:45.606Z,11.90
2019-05-02T14:52:12.647Z,11.80
2019-05-02T14:54:43.859Z,12.13
2019-05-02T14:57:08.429Z,13.63
2019-05-02T14:59:34.276Z,15.53
2019-05-02T15:02:05.689Z,17.03
2019-05-02T15:04:31.975Z,16.23
2019-05-02T15:06:57.613Z,16.47
2019-05-02T15:09:26.734Z,15.83
2019-05-02T15:11:56.889Z,17.87
2019-05-02T15:14:22.743Z,15.33
2019-05-02T15:16:49.736Z,16.87
2019-05-02T15:19:16.391Z,17.57
2019-05-02T15:21:42.396Z,17.30
2019-05-02T15:24:11.965Z,17.60
2019-05-02T15:26:37.790Z,18.27
2019-05-02T15:29:06.417Z,16.07
2019-05-02T15:31:35.835Z,18.00
2019-05-02T15:34:12.410Z,18.07
2019-05-02T15:36:42.271Z,18.50
2019-05-02T15:41:39.783Z,19.17
2019-05-02T15:44:03.754Z,20.00
2019-05-02T15:46:29.620Z,17.83
2019-05-02T15:48:57.193Z,19.40
2019-05-02T15:51:23.234Z,19.70
2019-05-02T15:54:05.306Z,18.47
2019-05-02T15:56:24.014Z,18.27
2019-05-02T15:58:49.133Z,17.90
2019-05-02T16:01:16.894Z,17.80
2019-05-02T16:03:52.155Z,19.07
2019-05-02T16:06:21.855Z,17.98
2019-05-02T16:08:46.030Z,19.43
2019-05-02T16:11:16.829Z,16.53
2019-05-02T16:13:42.415Z,18.93
2019-05-02T16:16:08.827Z,18.80
2019-05-02T16:18:36.081Z,19.57
2019-05-02T16:21:07.623Z,18.63
2019-05-02T16:23:35.085Z,19.33
2019-05-02T16:26:02.020Z,17.53
2019-05-02T16:28:27.946Z,15.07
2019-05-02T16:30:55.701Z,15.03
2019-05-02T16:33:21.565Z,13.00
2019-05-02T16:35:51.541Z,14.03
2019-05-02T16:38:15.199Z,12.43
2019-05-02T16:40:41.893Z,12.17
2019-05-02T16:43:07.879Z,12.50
2019-05-02T16:45:33.742Z,11.10
2019-05-02T16:48:00.658Z,11.43
2019-05-02T16:50:31.882Z,9.13
2019-05-02T16:52:55.129Z,7.90
2019-05-02T16:55:26.314Z,8.47
2019-05-02T16:57:49.379Z,7.83
2019-05-02T17:00:19.141Z,7.40
2019-05-02T17:02:46.499Z,7.13
2019-05-02T17:05:13.004Z,6.70
2019-05-02T17:07:46.550Z,6.73
2019-05-02T17:10:20.214Z,6.17
2019-05-02T17:12:47.343Z,5.50
2019-05-02T17:15:35.329Z,6.07
2019-05-02T17:18:05.107Z,5.03
2019-05-02T17:20:28.585Z,4.73
2019-05-02T17:23:01.768Z,5.00
2019-05-02T17:25:22.433Z,3.73
2019-05-02T17:27:53.473Z,3.40
2019-05-02T17:30:17.960Z,3.17
2019-05-02T17:32:43.821Z,3.10
2019-05-02T17:35:12.291Z,3.27
2019-05-02T17:37:48.556Z,2.90
2019-05-02T17:40:16.879Z,3.47
2019-05-02T17:42:41.601Z,4.27
2019-05-02T17:45:10.766Z,3.30
2019-05-02T17:47:37.689Z,4.27
2019-05-02T17:50:26.810Z,3.63
2019-05-02T17:52:56.211Z,3.50
2019-05-02T17:55:22.347Z,3.57
2019-05-02T17:57:48.261Z,3.17
2019-05-02T18:00:16.981Z,3.33
2019-05-02T18:02:47.005Z,2.60
2019-05-02T18:05:12.122Z,3.40
2019-05-02T18:07:38.081Z,3.23
2019-05-02T18:10:14.369Z,2.70
2019-05-02T18:12:34.825Z,2.83
2019-05-02T18:15:02.954Z,2.90
2019-05-02T18:17:29.150Z,2.70
2019-05-02T18:19:56.640Z,3.17
2019-05-02T18:22:26.344Z,2.87
2019-05-02T18:24:52.516Z,2.70
2019-05-02T18:27:18.515Z,2.70
2019-05-02T18:29:45.655Z,3.50
2019-05-02T18:32:12.865Z,4.73
2019-05-02T18:34:38.945Z,3.00
2019-05-02T18:37:06.224Z,2.67
2019-05-02T18:39:34.845Z,2.93
2019-05-02T18:42:00.038Z,3.07
2019-05-02T18:44:25.899Z,3.53
2019-05-02T18:46:51.987Z,2.70
2019-05-02T18:49:21.994Z,3.73
2019-05-02T18:51:51.365Z,3.17
2019-05-02T18:54:13.927Z,3.30
2019-05-02T18:56:44.299Z,3.13
2019-05-02T18:59:07.860Z,3.10
2019-05-02T19:01:33.717Z,2.57
2019-05-02T19:04:02.007Z,2.93
2019-05-02T19:06:28.087Z,2.43
2019-05-02T19:08:59.037Z,3.43
2019-05-02T19:11:31.037Z,2.60
2019-05-02T19:13:52.809Z,2.83
2019-05-02T19:16:19.380Z,2.50
2019-05-02T19:18:48.920Z,3.13
2019-05-02T19:21:15.011Z,2.77
2019-05-02T19:23:42.498Z,3.23
2019-05-02T19:26:12.153Z,3.30
2019-05-02T19:28:44.491Z,3.10
2019-05-02T19:31:10.484Z,2.90
2019-05-02T19:33:37.499Z,3.47
2019-05-02T19:36:04.655Z,3.23
2019-05-02T19:38:32.419Z,3.40
2019-05-02T19:41:05.457Z,3.60
2019-05-02T19:43:26.189Z,3.53
2019-05-02T19:45:54.047Z,3.40
2019-05-02T19:48:19.803Z,3.47
2019-05-02T19:50:45.875Z,3.90
2019-05-02T19:53:17.901Z,3.40
2019-05-02T19:55:39.582Z,3.20
2019-05-02T19:58:06.558Z,3.30
2019-05-02T20:00:36.656Z,3.27
2019-05-02T20:03:01.761Z,3.70
2019-05-02T20:05:27.992Z,3.60
2019-05-02T20:07:53.978Z,3.67
2019-05-02T20:10:20.189Z,3.43
2019-05-02T20:12:48.107Z,2.97
2019-05-02T20:15:36.156Z,3.33
2019-05-02T20:18:04.662Z,3.03
2019-05-02T20:20:44.280Z,3.40
2019-05-02T20:23:17.970Z,3.73
2019-05-02T20:25:39.195Z,3.43
2019-05-02T20:28:05.502Z,3.07
2019-05-02T20:30:31.521Z,3.33
2019-05-02T20:32:59.542Z,3.23
2019-05-02T20:35:25.996Z,3.57
2019-05-02T20:37:52.574Z,3.63
2019-05-02T20:40:24.882Z,3.20
2019-05-02T20:42:52.760Z,3.53
2019-05-02T20:45:19.079Z,3.83
2019-05-02T20:47:47.360Z,3.67
2019-05-02T20:50:13.502Z,3.10
2019-05-02T20:52:41.711Z,4.00
2019-05-02T20:55:07.677Z,3.53
2019-05-02T20:57:33.800Z,3.40
2019-05-02T21:00:09.100Z,3.63
2019-05-02T21:05:19.266Z,4.20
2019-05-02T21:08:01.871Z,4.43
2019-05-02T21:10:35.281Z,3.97
2019-05-02T21:13:12.667Z,4.30
2019-05-02T21:15:42.998Z,3.97
2019-05-02T21:18:12.464Z,4.13
2019-05-02T21:20:44.317Z,4.07
2019-05-02T21:23:11.995Z,4.40
2019-05-02T21:25:44.163Z,4.70
2019-05-02T21:28:17.589Z,5.50
2019-05-02T21:30:52.332Z,5.10
2019-05-02T21:33:38.990Z,4.87
2019-05-02T21:36:06.001Z,5.67
2019-05-02T21:38:32.164Z,5.37
2019-05-02T21:40:58.282Z,4.57
2019-05-02T21:43:24.212Z,5.07
2019-05-02T21:45:51.647Z,4.90
2019-05-02T21:48:21.922Z,5.10
2019-05-02T21:50:50.130Z,4.63
2019-05-02T21:53:17.992Z,4.67
2019-05-02T21:55:49.263Z,4.70
2019-05-02T21:58:15.288Z,5.33
2019-05-02T22:00:59.195Z,4.40
2019-05-02T22:03:25.805Z,5.00
2019-05-02T22:05:51.919Z,5.33
2019-05-02T22:08:18.163Z,5.60
2019-05-02T22:10:44.669Z,5.80
2019-05-02T22:13:10.777Z,8.13
2019-05-02T22:15:36.905Z,7.43
2019-05-02T22:18:03.021Z,7.07
2019-05-02T22:20:29.063Z,7.57
2019-05-02T22:22:55.087Z,7.90
2019-05-02T22:25:22.202Z,7.13
2019-05-02T22:27:48.310Z,7.00
2019-05-02T22:30:14.690Z,7.30
2019-05-02T22:32:42.613Z,5.83
2019-05-02T22:35:09.636Z,5.93
2019-05-02T22:37:37.461Z,6.30
2019-05-02T22:40:07.404Z,5.80
2019-05-02T22:42:33.629Z,5.70
2019-05-02T22:45:01.622Z,5.23
2019-05-02T22:47:27.697Z,5.67
2019-05-02T22:49:53.725Z,5.23
2019-05-02T22:52:21.642Z,4.93
2019-05-02T22:54:47.701Z,5.40
2019-05-02T22:57:14.336Z,5.00
2019-05-02T22:59:42.276Z,4.60
2019-05-02T23:02:08.617Z,4.13
2019-05-02T23:04:34.732Z,4.57
2019-05-02T23:07:02.309Z,5.20
2019-05-02T23:09:28.700Z,4.73
2019-05-02T23:11:54.705Z,4.10
2019-05-02T23:14:22.091Z,4.07
2019-05-02T23:16:48.691Z,4.40
2019-05-02T23:19:14.962Z,3.93
2019-05-02T23:21:42.165Z,4.40
2019-05-02T23:24:11.748Z,5.17
2019-05-02T23:26:42.235Z,5.20
2019-05-02T23:29:10.259Z,5.30
2019-05-02T23:31:36.315Z,5.43
2019-05-02T23:34:02.611Z,5.03
2019-05-02T23:36:29.858Z,4.53
2019-05-02T23:38:56.252Z,5.63
2019-05-02T23:41:22.368Z,5.20
2019-05-02T23:43:48.364Z,5.20
2019-05-02T23:46:14.408Z,5.50
2019-05-02T23:48:41.944Z,5.03
2019-05-02T23:51:08.179Z,4.90
2019-05-02T23:53:34.177Z,5.07
2019-05-02T23:56:00.231Z,5.40
2019-05-02T23:58:26.231Z,4.70
